Terminal Aerodrome Forecast
Issued by NWS

Home | Current Version | Previous Version | Text Only | Print | Product List | Glossary On
Versions: 1 2 3 4 5 6 7 8 9 10 11 12 13 14 15 16 17 18
781
FTUS43 KSGF 171755 CCA
TAFBBG
TAF COR
KBBG 171755Z 1718/1818 VRB05KT 1SM BR OVC004
     FM172000 VRB05KT 3SM BR OVC004
     FM181400 23004KT P6SM BKN010
     FM181700 24005KT P6SM SCT050=

USA.gov is the U.S. government's official web portal to all federal, state and local government web resources and services.